Strona główna
METAR-TAF:

METAR-TAF

Lotnisko :

Port lotniczy Maastricht Aachen

Maastricht Akwizgran, Holandia

Szerokość geograficzna: 50-55N, Długość geograficzna: 005-47E, wysokość: 114 m

Aktualna obserwacja pogody

Raport powstał 35 minut temu, godzina 23:55 UTC
Wiatr 4 kt od wschodnio-południowy wschód
Temperatura 7°C
Wilgotność 57%
Ciśnienie 1022 hPa
Widzialność 10 km lub więcej

METAR: EHBK 042355Z AUTO 12004KT 9999 NCD 07/M01 Q1022

czas: 02:30 (00:30 UTC)

Prognoza

Raport powstał 1 godzina i 46 minut temu, godzina 22:44 UTC
Prognoza ważna od 05 godzina 00 UTC do 06 godzina 06 UTC
Wiatr 6 kt od wschodnio-południowy wschód
Widzialność 10 km lub więcej
Brak chmur poniżej 1500 m i brak chmur cumulonimbus
Stopniowe zmiany
od 05 godzina 08 UTC do 05 godzina 11 UTC
Wiatr 11 kt od południowo-południowy wschód
Stopniowe zmiany
od 06 godzina 00 UTC do 06 godzina 03 UTC
Wiatr 10 kt od południe

TAF: EHBK 042244Z 0500/0606 12006KT CAVOK BECMG 0508/0511 15011KT BECMG 0600/0603 18010KT

Obserwacja i prognoza pogody dla ponad 4000 lotnisk (raport METAR i TAF).

Dostępne stacje oznaczono żółtymi i czerwonymi punktami na mapie.

Najedź kursorem aby zobaczyć nazwę stacji.

Kliknij aby zobaczyć obserwacje i prognozy pogody.

Aby zmienić mapę: kliknij na zielony przycisk z czarnym krzyżykiem, aby powiększyć; na zielony przycisk z myślnikiem, aby pomniejszyć; na zielone strzałki, aby przejść do map sąsiednich.


METAR-TAF: